Flight Track Log - Related Links

Times and Time Zones

All times are in EDT time to prevent confusion due to time zone crossing. See the AAY804 flight status page for this flight to view local times or setup timezone preferences in your user account.

Time Position Orientation Groundspeed Altitude Reporting Facility
EDT Latitude Longitude Course Direction KTS MPH feet Rate Location/Type
Sun 06:49:31 AM 27.9000 -82.6833 180° South 164 189 900  Level Tampa TRACON
Sun 06:50:37 AM 27.8333 -82.6833 180° South 218 251 3,100 2,599 Climbing Tampa TRACON
Sun 06:52:08 AM 27.8639 -82.7564 295° West 221 254 7,700 2,901 Climbing Jacksonville Center
Sun 06:53:08 AM 27.9392 -82.7681 352° North 186 214 10,400 2,100 Climbing Jacksonville Center
Sun 06:54:08 AM 28.0183 -82.7750 356° North 236 272 11,900 1,600 Climbing Jacksonville Center
Sun 06:55:08 AM 28.1144 -82.8078 343° North 303 349 13,600 2,150 Climbing Jacksonville Center
Sun 06:56:08 AM 28.2189 -82.8408 344° North 348 400 16,200 2,350 Climbing Jacksonville Center
Sun 06:57:08 AM 28.3189 -82.8736 344° North 367 422 18,300 1,900 Climbing Jacksonville Center
Sun 06:58:08 AM 28.4233 -82.9114 342° North 380 437 20,000 1,750 Climbing Jacksonville Center
Sun 06:59:08 AM 28.5339 -82.9469 344° North 391 450 21,800 1,600 Climbing Jacksonville Center
Sun 07:00:08 AM 28.6319 -82.9753 346° North 398 458 23,200 1,450 Climbing Jacksonville Center
Sun 07:01:08 AM 28.7447 -83.0158 343° North 412 474 24,700 1,400 Climbing Jacksonville Center
Sun 07:02:08 AM 28.8594 -83.0514 345° North 418 481 26,000 1,150 Climbing Jacksonville Center
Sun 07:03:08 AM 28.9761 -83.0825 347° North 423 487 27,000 500 Climbing Jacksonville Center
Sun 07:04:08 AM 29.0972 -83.1161 346° North 429 494 27,000  Level Jacksonville Center
Sun 07:05:08 AM 29.2183 -83.1472 347° North 435 501 27,000 400 Level Jacksonville Center
Sun 07:06:08 AM 29.3372 -83.1831 345° North 435 501 27,800 1,150 Climbing Jacksonville Center
Sun 07:07:08 AM 29.4561 -83.2169 346° North 435 501 29,300 1,200 Climbing Jacksonville Center
Sun 07:08:08 AM 29.5833 -83.2531 346° North 452 520 30,200 1,350 Climbing Jacksonville Center
Sun 07:09:08 AM 29.7083 -83.2894 346° North 452 520 32,000 1,600 Climbing Jacksonville Center
Sun 07:10:08 AM 29.8294 -83.3211 347° North 452 520 33,400 1,300 Climbing Jacksonville Center
Sun 07:11:08 AM 29.9631 -83.3600 346° North 452 520 34,600 1,100 Climbing Jacksonville Center
Sun 07:12:08 AM 30.0839 -83.3942 346° North 447 514 35,600 700 Climbing Jacksonville Center
Sun 07:13:08 AM 30.2047 -83.4261 347° North 447 514 36,000 200 Climbing Jacksonville Center
Sun 07:14:08 AM 30.3258 -83.4606 346° North 447 514 36,000  Level Jacksonville Center
Sun 07:15:08 AM 30.4447 -83.4925 347° North 447 514 36,000 -50 Level Jacksonville Center
Sun 07:16:08 AM 30.5636 -83.5272 346° North 442 509 35,900 -50 Descending Jacksonville Center
Sun 07:17:08 AM 30.6822 -83.5617 346° North 434 499 35,900 50 Level Jacksonville Center
Sun 07:18:08 AM 30.7844 -83.5914 346° North 425 489 36,000 35 Climbing Jacksonville Center
Sun 07:19:58 AM 31.0031 -83.6561 346° North 437 503 36,000  Level Atlanta Center
Sun 07:20:58 AM 31.1222 -83.6919 346° North 437 503 36,000  Level Atlanta Center
Sun 07:21:58 AM 31.2433 -83.7256 347° North 437 503 36,000  Level Atlanta Center
Sun 07:22:58 AM 31.3622 -83.7617 345° North 432 497 36,000  Level Atlanta Center
Sun 07:23:58 AM 31.4814 -83.7953 346° North 432 497 36,000  Level Atlanta Center
Sun 07:24:58 AM 31.6108 -83.8389 344° North 432 497 36,000  Level Atlanta Center
Sun 07:25:58 AM 31.7319 -83.8656 349° North 438 504 36,000  Level Atlanta Center
Sun 07:26:58 AM 31.8592 -83.9067 345° North 454 522 36,000 -100 Level Atlanta Center
Sun 07:27:58 AM 31.9742 -83.9408 346° North 441 507 35,800 -550 Descending Atlanta Center
Sun 07:28:58 AM 32.0908 -83.9728 347° North 434 499 34,900 -950 Descending Atlanta Center
Sun 07:29:58 AM 32.2119 -84.0094 346° North 434 499 33,900 -1,000 Descending Atlanta Center
Sun 07:30:58 AM 32.3331 -84.0436 347° North 434 499 32,900 -950 Descending Atlanta Center
Sun 07:31:58 AM 32.4564 -84.0806 346° North 434 499 32,000 -450 Descending Atlanta Center
Sun 07:32:58 AM 32.5753 -84.1178 345° North 434 499 32,000  Level Atlanta Center
Sun 07:33:58 AM 32.6942 -84.1547 345° North 434 499 32,000  Level Atlanta Center
Sun 07:34:58 AM 32.8153 -84.1922 345° North 434 499 32,000  Level Atlanta Center
Sun 07:35:58 AM 32.9236 -84.2219 347° North 434 499 32,000  Level Atlanta Center
Sun 07:36:58 AM 33.0425 -84.2594 345° North 434 499 32,000 -300 Level Atlanta Center
Sun 07:37:58 AM 33.1594 -84.2919 347° North 434 499 31,400 -800 Descending Atlanta Center
Sun 07:38:58 AM 33.2783 -84.3294 345° North 434 499 30,400 -1,000 Descending Atlanta Center
Sun 07:39:58 AM 33.3931 -84.3672 345° North 434 499 29,400 -700 Descending Atlanta Center
Sun 07:40:58 AM 33.5100 -84.4000 347° North 429 494 29,000 -200 Descending Atlanta Center
Sun 07:41:58 AM 33.6203 -84.4356 345° North 429 494 29,000 -1,708 Level Atlanta Center
Sun 07:47:21 AM 34.2191 -84.7232 337° Northwest 384 442 18,100 -2,033 Descending FlightAware ADS-B (KDZJ)
Sun 07:47:58 AM 34.2786 -84.7528 337° Northwest 401 461 16,800 -1,979 Descending Atlanta Center
Sun 07:48:58 AM 34.3700 -84.7989 337° Northwest 383 441 14,900 -2,200 Descending Atlanta Center
Sun 07:49:58 AM 34.4594 -84.8425 338° Northwest 364 419 12,400 -1,950 Descending Atlanta Center
Sun 07:50:58 AM 34.5428 -84.8836 338° Northwest 337 388 11,000 -800 Descending Atlanta Center
Sun 07:51:58 AM 34.6258 -84.9247 338° Northwest 330 380 10,800 -600 Descending Atlanta Center
Sun 07:52:58 AM 34.6944 -84.9583 338° Northwest 308 354 9,800 -1,650 Descending Atlanta Center
Sun 07:53:58 AM 34.7714 -84.9922 340° North 297 342 7,500 -2,000 Descending Atlanta Center
Sun 07:54:58 AM 34.8464 -85.0131 347° North 284 327 5,800 -1,450 Descending Atlanta Center
Sun 07:55:58 AM 34.9172 -85.0292 349° North 278 320 4,600 -900 Descending Atlanta Center
Sun 07:56:58 AM 34.9819 -85.0478 347° North 258 297 4,000 -800 Descending Atlanta Center
Sun 07:57:58 AM 35.0464 -85.0636 349° North 240 276 3,000 -1,000 Descending Atlanta Center
Sun 07:59:00 AM 35.0333 -85.2000 331° Northwest  Level FlightAware Approximate
Sun 08:06:00 AM 35.0352 -85.2036 331° Northwest  Level Estimated
Sun 08:07:00 AM 35.0333 -85.2000 331° Northwest  Level FlightAware Approximate
Sun 08:08:00 AM 35.0352 -85.2036 331° Northwest  Level Estimated
Sun 08:09:00 AM 35.0333 -85.2000 331° Northwest  Level FlightAware Approximate
Sun 08:10:00 AM 35.0352 -85.2036 331° Northwest  Level Estimated
Sun 08:11:00 AM 35.0333 -85.2000 331° Northwest  Level FlightAware Approximate
Sun 08:12:00 AM 35.0352 -85.2036 331° Northwest  Level Estimated
Sun 08:13:00 AM 35.0333 -85.2000 331° Northwest  Level FlightAware Approximate

Login

Don't have an account? Register now (free) for customized features, flight alerts, and more!